Time;durP1;ratioP1;P1;durP2;ratioP2;P2;SDS_P1;SDS_P2;PMS_P1;PMS_P2;Temp;Humidity;BMP_temperature;BMP_pressure;BME280_temperature;BME280_humidity;BME280_pressure;Samples;Min_cycle;Max_cycle;Signal;HPM_P1;HPM_P2
2022/10/20 00:00:20;;;;;;;8.88;2.08;;;;;;;13.20;46.09;99472.75;4494200;31;20154;-82
2022/10/20 00:02:46;;;;;;;6.90;1.98;;;;;;;13.16;46.08;99476.50;4494305;31;20445;-82
2022/10/20 00:05:11;;;;;;;7.78;1.65;;;;;;;13.17;46.05;99484.34;4487064;31;20399;-81
2022/10/20 00:07:36;;;;;;;6.30;1.60;;;;;;;13.13;45.74;99482.81;4497726;31;20647;-82
2022/10/20 00:10:02;;;;;;;6.55;2.03;;;;;;;13.15;45.76;99485.34;4489952;31;20112;-82
2022/10/20 00:12:27;;;;;;;6.05;2.33;;;;;;;13.17;45.95;99483.47;4492400;31;20100;-81
2022/10/20 00:14:53;;;;;;;6.65;1.77;;;;;;;13.17;45.88;99473.78;4495606;31;20115;-81
2022/10/20 00:17:18;;;;;;;5.20;1.73;;;;;;;13.17;45.58;99484.34;4473807;31;20367;-81
2022/10/20 00:19:46;;;;;;;7.72;2.08;;;;;;;13.17;45.57;99483.47;4482284;32;20120;-81
2022/10/20 00:22:12;;;;;;;6.72;1.90;;;;;;;13.13;45.97;99488.13;4491433;31;20115;-82
2022/10/20 00:24:37;;;;;;;7.85;2.20;;;;;;;13.17;45.74;99487.00;4491819;31;20091;-82
2022/10/20 00:27:03;;;;;;;5.57;1.75;;;;;;;13.15;45.77;99491.53;4495978;31;20088;-82
2022/10/20 00:29:28;;;;;;;6.22;1.90;;;;;;;13.13;45.75;99498.69;4486453;31;20100;-82
2022/10/20 00:31:54;;;;;;;6.68;1.73;;;;;;;13.12;45.79;99494.31;4496232;31;20085;-81
2022/10/20 00:34:19;;;;;;;6.70;2.03;;;;;;;13.11;45.63;99505.81;4492567;31;20133;-81
2022/10/20 00:36:45;;;;;;;8.65;2.22;;;;;;;13.12;45.85;99502.25;4491295;31;20446;-81
2022/10/20 00:39:10;;;;;;;5.32;1.70;;;;;;;13.09;45.91;99501.56;4496147;31;20232;-80
2022/10/20 00:41:35;;;;;;;5.35;1.80;;;;;;;13.09;45.97;99497.13;4487799;31;20096;-81
2022/10/20 00:44:39;;;;;;;6.32;2.00;;;;;;;13.07;45.78;99496.34;4495246;31;20127;-81
2022/10/20 00:47:04;;;;;;;12.90;1.83;;;;;;;13.04;45.47;99504.47;4496753;31;20427;-81
2022/10/20 00:49:30;;;;;;;7.37;2.22;;;;;;;13.01;45.25;99494.03;4460063;31;20105;-81
2022/10/20 00:51:55;;;;;;;7.07;2.15;;;;;;;13.02;45.25;99495.75;4496182;31;20549;-81
2022/10/20 00:54:26;;;;;;;8.88;2.15;;;;;;;13.05;45.28;99503.50;4476176;31;20130;-81
2022/10/20 00:56:54;;;;;;;7.30;1.83;;;;;;;13.05;45.47;99500.88;4475660;32;20101;-81
2022/10/20 00:59:22;;;;;;;7.05;1.98;;;;;;;13.01;45.48;99496.69;4482699;31;20104;-81
2022/10/20 01:01:48;;;;;;;7.57;2.12;;;;;;;13.01;45.39;99494.03;4488430;31;20077;-82
2022/10/20 01:04:14;;;;;;;5.53;1.70;;;;;;;13.04;45.46;99506.25;4493654;31;20084;-82
2022/10/20 01:06:39;;;;;;;4.57;1.60;;;;;;;13.02;45.39;99501.06;4479560;31;20484;-81
2022/10/20 01:09:05;;;;;;;7.37;1.73;;;;;;;13.05;45.24;99503.50;4487351;31;20132;-82
2022/10/20 01:11:56;;;;;;;6.65;2.05;;;;;;;13.04;45.26;99499.19;4483178;31;20404;-81
2022/10/20 01:14:46;;;;;;;6.10;1.70;;;;;;;13.05;45.42;99495.59;4476065;31;20498;-81
2022/10/20 01:17:17;;;;;;;6.80;2.00;;;;;;;13.05;45.23;99502.66;4488094;31;20445;-81
2022/10/20 01:20:01;;;;;;;5.65;1.80;;;;;;;13.01;44.98;99498.47;4484323;32;20141;-81
2022/10/20 01:22:47;;;;;;;7.25;1.87;;;;;;;12.94;45.00;99504.09;4483780;32;20448;-82
2022/10/20 01:25:49;;;;;;;5.78;1.77;;;;;;;12.97;44.81;99498.63;4496748;31;20087;-82
2022/10/20 01:28:19;;;;;;;5.90;1.80;;;;;;;12.93;44.99;99490.94;4428881;32;21104;-82
2022/10/20 01:30:48;;;;;;;6.18;1.70;;;;;;;12.77;44.64;99498.84;4413142;32;20389;-82
2022/10/20 01:33:19;;;;;;;6.12;1.92;;;;;;;12.85;44.81;99499.28;4418665;32;20182;-81
2022/10/20 01:35:55;;;;;;;4.43;1.70;;;;;;;12.89;45.40;99507.91;4423452;32;20093;-81
2022/10/20 01:38:26;;;;;;;6.25;2.47;;;;;;;12.87;46.01;99501.88;4419185;32;20108;-82
2022/10/20 01:41:00;;;;;;;5.47;1.62;;;;;;;12.84;46.00;99507.28;4428429;32;20128;-81
2022/10/20 01:43:29;;;;;;;6.55;1.80;;;;;;;12.88;45.82;99506.19;4435729;32;20109;-82
2022/10/20 01:45:56;;;;;;;6.35;1.77;;;;;;;12.85;45.46;99507.22;4435320;32;20112;-82
2022/10/20 01:48:25;;;;;;;5.12;1.60;;;;;;;12.84;45.36;99502.84;4419393;32;20582;-82
2022/10/20 01:50:51;;;;;;;5.07;1.62;;;;;;;12.85;45.22;99509.03;4415532;32;20694;-81
2022/10/20 01:53:16;;;;;;;6.07;1.65;;;;;;;12.85;45.14;99501.09;4424369;32;20143;-84
2022/10/20 01:55:42;;;;;;;4.65;1.52;;;;;;;12.85;45.22;99504.59;4437701;32;20117;-82
2022/10/20 01:58:36;;;;;;;7.12;1.87;;;;;;;12.79;45.21;99502.25;4424796;32;20113;-85
2022/10/20 02:01:39;;;;;;;7.43;2.20;;;;;;;12.78;44.92;99506.66;4424440;32;20094;-83
2022/10/20 02:04:06;;;;;;;4.80;1.60;;;;;;;12.78;44.65;99506.66;4446727;32;20395;-81
2022/10/20 02:06:46;;;;;;;5.50;1.60;;;;;;;12.75;44.57;99513.94;4481273;31;20171;-81
2022/10/20 02:09:16;;;;;;;4.53;1.73;;;;;;;12.80;44.62;99509.25;4487774;31;20180;-81
2022/10/20 02:11:58;;;;;;;7.00;1.70;;;;;;;12.80;44.76;99503.97;4492932;31;20122;-81
2022/10/20 02:14:24;;;;;;;5.07;1.83;;;;;;;12.76;45.45;99505.91;4481691;31;20100;-81
2022/10/20 02:17:03;;;;;;;5.87;1.77;;;;;;;12.80;45.39;99503.97;4471758;31;20102;-81
2022/10/20 02:19:33;;;;;;;7.43;1.95;;;;;;;12.80;45.58;99503.97;4479173;32;20100;-81
2022/10/20 02:22:00;;;;;;;5.30;1.55;;;;;;;12.74;44.98;99501.62;4479550;31;20178;-81
2022/10/20 02:24:28;;;;;;;6.15;2.00;;;;;;;12.78;44.54;99508.47;4494899;31;20107;-81
2022/10/20 02:26:56;;;;;;;6.65;1.90;;;;;;;12.76;44.24;99510.34;4498403;31;20407;-81
2022/10/20 02:29:27;;;;;;;5.45;1.73;;;;;;;12.82;44.08;99517.94;4482172;32;20128;-81
2022/10/20 02:31:52;;;;;;;6.05;1.80;;;;;;;12.76;44.12;99502.41;4478447;31;20824;-81
2022/10/20 02:34:18;;;;;;;4.75;1.75;;;;;;;12.78;43.87;99516.41;4489622;31;20743;-81
2022/10/20 02:36:44;;;;;;;6.25;1.92;;;;;;;12.83;43.73;99513.53;4485857;31;20100;-81
2022/10/20 02:39:10;;;;;;;6.43;1.90;;;;;;;12.80;43.53;99517.19;4498045;31;20145;-81
2022/10/20 02:41:35;;;;;;;6.03;1.90;;;;;;;12.53;43.60;99515.00;4490867;31;20352;-80
2022/10/20 02:44:01;;;;;;;7.30;1.70;;;;;;;12.61;43.61;99508.50;4492711;31;20391;-82
2022/10/20 02:46:26;;;;;;;6.25;1.90;;;;;;;12.76;43.43;99520.91;4485215;32;20080;-82
2022/10/20 02:48:52;;;;;;;5.95;1.70;;;;;;;12.83;43.42;99529.41;4495740;31;20088;-82
2022/10/20 02:51:17;;;;;;;7.15;2.05;;;;;;;12.87;43.61;99528.31;4488570;31;20687;-82
2022/10/20 02:53:43;;;;;;;8.10;1.77;;;;;;;12.78;44.08;99530.47;4479684;32;20494;-82
2022/10/20 02:56:09;;;;;;;5.25;1.87;;;;;;;12.84;43.92;99528.44;4494503;31;20092;-81
2022/10/20 02:58:34;;;;;;;7.95;2.35;;;;;;;12.83;43.61;99530.25;4474869;32;20106;-82
2022/10/20 03:01:00;;;;;;;6.15;1.90;;;;;;;12.84;43.53;99534.59;4484469;31;20138;-80
2022/10/20 03:03:26;;;;;;;5.22;1.73;;;;;;;12.84;44.28;99529.28;4489522;31;20087;-81
2022/10/20 03:05:51;;;;;;;6.28;1.92;;;;;;;12.81;44.77;99529.47;4492085;31;20158;-81
2022/10/20 03:08:16;;;;;;;6.12;2.10;;;;;;;12.86;44.66;99530.06;4482467;31;20092;-82
2022/10/20 03:10:42;;;;;;;5.05;1.70;;;;;;;12.87;44.71;99531.78;4488700;31;20104;-81
2022/10/20 03:13:09;;;;;;;6.03;2.05;;;;;;;12.78;44.53;99532.25;4485246;31;20096;-81
2022/10/20 03:15:34;;;;;;;5.87;1.98;;;;;;;12.78;44.46;99541.03;4476824;31;20071;-82
2022/10/20 03:18:00;;;;;;;5.62;1.80;;;;;;;12.78;44.70;99538.41;4492392;31;20111;-87
2022/10/20 03:20:25;;;;;;;6.15;1.90;;;;;;;12.78;45.40;99538.41;4496455;31;20123;-88
2022/10/20 03:22:50;;;;;;;7.35;2.00;;;;;;;12.74;45.46;99543.94;4487123;31;20089;-89
2022/10/20 03:25:16;;;;;;;5.95;1.90;;;;;;;12.72;45.46;99551.94;4473416;32;20149;-88
2022/10/20 03:27:41;;;;;;;5.43;2.00;;;;;;;12.71;45.48;99552.88;4487789;32;20141;-86
2022/10/20 03:30:07;;;;;;;7.53;1.92;;;;;;;12.66;45.44;99552.25;4472894;32;20677;-88
2022/10/20 03:32:33;;;;;;;6.53;2.03;;;;;;;12.64;45.58;99555.94;4485809;32;20119;-86
2022/10/20 03:34:58;;;;;;;7.95;2.30;;;;;;;12.63;45.72;99547.12;4487961;31;20096;-85
2022/10/20 03:37:23;;;;;;;7.70;2.05;;;;;;;12.61;45.63;99550.78;4495599;31;20421;-86
2022/10/20 03:39:49;;;;;;;6.22;2.15;;;;;;;12.61;45.53;99550.78;4491808;31;20103;-84
2022/10/20 03:42:15;;;;;;;6.72;2.00;;;;;;;12.52;45.74;99555.59;4463701;32;20533;-83
2022/10/20 03:44:40;;;;;;;9.80;2.30;;;;;;;12.49;45.78;99565.47;4498500;31;20112;-86
2022/10/20 03:47:06;;;;;;;7.40;2.22;;;;;;;12.44;46.06;99556.91;4485383;31;20118;-84
2022/10/20 03:49:32;;;;;;;6.12;2.05;;;;;;;12.48;45.91;99563.78;4474406;31;20112;-87
2022/10/20 03:51:58;;;;;;;6.70;2.12;;;;;;;12.29;46.26;99558.53;4491166;31;20772;-84
2022/10/20 03:54:23;;;;;;;6.03;1.90;;;;;;;12.31;46.23;99560.16;4494861;31;20188;-85
2022/10/20 03:56:49;;;;;;;6.57;2.50;;;;;;;12.38;46.18;99558.06;4487497;31;20115;-87
2022/10/20 03:59:14;;;;;;;6.30;2.10;;;;;;;12.44;46.35;99560.44;4497763;31;20108;-89
2022/10/20 04:01:43;;;;;;;7.05;2.47;;;;;;;12.32;46.70;99559.25;4489744;31;20442;-87
2022/10/20 04:04:08;;;;;;;6.90;2.15;;;;;;;12.31;46.71;99554.88;4490940;31;20100;-86
2022/10/20 04:06:33;;;;;;;7.00;2.10;;;;;;;12.34;46.74;99554.75;4481065;31;20132;-87
2022/10/20 04:08:59;;;;;;;7.85;2.40;;;;;;;12.39;46.70;99563.28;4472785;31;20147;-84
2022/10/20 04:11:25;;;;;;;7.47;2.05;;;;;;;12.40;46.80;99561.53;4496236;31;20088;-88
2022/10/20 04:13:51;;;;;;;7.32;2.37;;;;;;;12.42;47.03;99564.06;4491406;31;20095;-83
2022/10/20 04:16:17;;;;;;;7.37;2.30;;;;;;;12.41;47.22;99562.38;4489606;31;20488;-83
2022/10/20 04:18:42;;;;;;;9.02;2.33;;;;;;;12.41;47.44;99562.38;4497879;31;20157;-84
2022/10/20 04:21:07;;;;;;;8.60;2.60;;;;;;;12.43;47.54;99561.34;4472467;31;20146;-83
2022/10/20 04:23:33;;;;;;;7.40;2.40;;;;;;;12.45;47.73;99558.63;4495762;31;20155;-83
2022/10/20 04:25:58;;;;;;;7.65;2.33;;;;;;;12.47;47.77;99552.34;4491355;31;20135;-83
2022/10/20 04:28:24;;;;;;;6.47;2.15;;;;;;;12.45;47.96;99558.63;4489974;31;20120;-84
2022/10/20 04:30:49;;;;;;;7.65;2.20;;;;;;;12.46;48.07;99555.03;4498622;31;20114;-84
2022/10/20 04:33:15;;;;;;;7.47;2.15;;;;;;;12.47;48.07;99562.06;4474089;31;20104;-82
2022/10/20 04:35:40;;;;;;;7.30;2.42;;;;;;;12.46;48.16;99561.22;4494049;31;20134;-82
2022/10/20 04:38:06;;;;;;;7.85;2.40;;;;;;;12.48;48.17;99558.50;4492803;31;20092;-81
2022/10/20 04:40:32;;;;;;;7.05;2.08;;;;;;;12.46;48.25;99557.69;4474280;32;20103;-86
2022/10/20 04:43:00;;;;;;;6.75;2.50;;;;;;;12.45;48.34;99546.25;4474722;32;20155;-84
2022/10/20 04:45:26;;;;;;;8.77;2.47;;;;;;;12.45;48.43;99551.56;4490420;31;20080;-85
2022/10/20 04:47:52;;;;;;;7.47;2.37;;;;;;;12.49;48.39;99539.91;4503316;31;20148;-85
2022/10/20 04:50:17;;;;;;;8.45;2.50;;;;;;;12.49;48.49;99554.91;4503185;31;20103;-85
2022/10/20 04:52:43;;;;;;;8.73;2.45;;;;;;;12.47;48.64;99556.78;4502885;31;20080;-84
2022/10/20 04:55:08;;;;;;;8.52;2.60;;;;;;;12.47;48.78;99557.63;4501852;31;20470;-83
2022/10/20 04:57:34;;;;;;;7.37;2.53;;;;;;;12.48;48.84;99556.69;4503036;31;20100;-84
2022/10/20 04:59:59;;;;;;;6.72;2.28;;;;;;;12.47;48.84;99560.25;4497173;31;20096;-82
2022/10/20 05:02:24;;;;;;;7.78;2.72;;;;;;;12.49;48.86;99560.19;4502947;31;20124;-81
2022/10/20 05:04:50;;;;;;;7.85;2.35;;;;;;;12.48;48.99;99563.78;4487916;31;20093;-83
2022/10/20 05:07:15;;;;;;;8.15;2.60;;;;;;;12.48;49.13;99563.78;4500042;31;20120;-81
2022/10/20 05:09:40;;;;;;;7.50;2.60;;;;;;;12.51;49.26;99572.38;4502454;31;20088;-83
2022/10/20 05:12:07;;;;;;;8.02;2.10;;;;;;;12.51;49.48;99566.25;4502631;31;20459;-83
2022/10/20 05:14:32;;;;;;;10.18;3.35;;;;;;;12.52;49.44;99567.97;4475401;31;20103;-83
2022/10/20 05:16:57;;;;;;;8.35;3.03;;;;;;;12.47;49.54;99575.25;4502954;31;20100;-83
2022/10/20 05:19:23;;;;;;;8.13;2.67;;;;;;;12.48;49.60;99582.28;4488443;31;20102;-83
2022/10/20 05:21:48;;;;;;;7.72;2.55;;;;;;;12.50;49.59;99585.69;4488525;31;20424;-82
2022/10/20 05:24:15;;;;;;;8.68;2.75;;;;;;;12.57;49.74;99585.31;4502716;31;20104;-82
2022/10/20 05:26:41;;;;;;;9.80;2.90;;;;;;;12.54;49.83;99590.75;4502851;31;20104;-82
2022/10/20 05:29:08;;;;;;;7.40;2.58;;;;;;;12.56;49.92;99588.87;4502684;31;20088;-82
2022/10/20 05:31:42;;;;;;;8.93;3.03;;;;;;;12.57;50.06;99595.88;4485702;31;20139;-83
2022/10/20 05:34:08;;;;;;;7.80;2.85;;;;;;;12.66;50.16;99599.00;4502778;31;20101;-83
2022/10/20 05:36:34;;;;;;;9.48;2.87;;;;;;;12.66;50.08;99607.78;4502732;31;20161;-83
2022/10/20 05:38:59;;;;;;;9.20;3.05;;;;;;;12.76;49.96;99609.00;4502726;31;20356;-82
2022/10/20 05:41:27;;;;;;;10.32;3.15;;;;;;;12.79;49.90;99616.81;4488274;31;20104;-85
2022/10/20 05:43:56;;;;;;;;;;;;;;;12.87;49.83;99612.94;4484956;32;20124;-84
2022/10/20 05:46:22;;;;;;;10.68;3.65;;;;;;;12.95;49.77;99616.03;4487889;31;20330;-84
2022/10/20 05:48:47;;;;;;;10.20;3.28;;;;;;;12.98;49.70;99621.19;4491967;31;21260;-82
2022/10/20 05:51:17;;;;;;;9.88;3.47;;;;;;;13.02;49.60;99621.84;4491101;31;20107;-85
2022/10/20 05:53:43;;;;;;;10.60;3.22;;;;;;;13.10;49.48;99620.53;4489109;31;20092;-85
2022/10/20 05:56:11;;;;;;;11.12;3.00;;;;;;;13.14;49.40;99624.72;4501912;31;20099;-85
2022/10/20 05:58:37;;;;;;;8.73;2.78;;;;;;;13.25;49.06;99621.53;4488247;31;20119;-84
2022/10/20 06:01:15;;;;;;;11.90;3.20;;;;;;;13.29;48.96;99630.13;4502467;31;20110;-84
2022/10/20 06:03:41;;;;;;;8.82;3.20;;;;;;;13.29;48.95;99630.13;4485958;31;80546;-85
2022/10/20 06:06:06;;;;;;;7.75;2.80;;;;;;;13.41;48.69;99637.50;4477768;31;20092;-87
2022/10/20 06:08:32;;;;;;;8.93;2.95;;;;;;;13.51;48.14;99628.13;4477312;32;20158;-85
2022/10/20 06:11:08;;;;;;;10.13;3.40;;;;;;;13.62;47.99;99634.63;4491019;31;20104;-85
2022/10/20 06:13:33;;;;;;;12.77;2.85;;;;;;;13.61;48.14;99643.50;4478570;31;20484;-85
2022/10/20 06:16:10;;;;;;;8.30;3.37;;;;;;;13.71;47.88;99642.06;4494375;31;20104;-85
2022/10/20 06:18:39;;;;;;;10.45;3.20;;;;;;;13.70;48.00;99646.53;4477194;32;20490;-84
2022/10/20 06:21:09;;;;;;;10.98;3.05;;;;;;;13.80;47.67;99653.97;4487796;31;20084;-84
2022/10/20 06:23:34;;;;;;;9.10;3.17;;;;;;;13.84;47.59;99648.41;4472085;32;20085;-88
2022/10/20 06:26:11;;;;;;;10.82;3.12;;;;;;;13.94;47.18;99652.28;4486263;32;20509;-81
2022/10/20 06:28:37;;;;;;;11.45;3.55;;;;;;;13.98;46.84;99657.41;4486186;32;20139;-87
2022/10/20 06:31:14;;;;;;;9.27;3.65;;;;;;;14.02;46.69;99662.44;4492046;31;20084;-83
2022/10/20 06:33:39;;;;;;;11.43;3.90;;;;;;;14.03;46.94;99661.53;4490388;31;20084;-82
2022/10/20 06:36:05;;;;;;;10.25;3.60;;;;;;;14.06;46.80;99664.00;4479488;31;20433;-82
2022/10/20 06:38:30;;;;;;;12.25;3.65;;;;;;;14.09;46.61;99668.28;4466395;31;20171;-82
2022/10/20 06:40:56;;;;;;;11.25;3.67;;;;;;;14.16;46.51;99659.06;4486965;31;20083;-82
2022/10/20 06:43:21;;;;;;;10.07;3.60;;;;;;;13.84;47.65;99669.59;4487673;31;20309;-82
2022/10/20 06:46:05;;;;;;;9.05;3.60;;;;;;;14.11;46.95;99671.69;4501943;31;20458;-82
2022/10/20 06:48:32;;;;;;;9.82;4.10;;;;;;;14.19;46.61;99665.97;4487721;31;20118;-82
2022/10/20 06:50:59;;;;;;;9.82;3.50;;;;;;;14.22;46.74;99671.97;4501875;31;20106;-82
2022/10/20 06:53:26;;;;;;;9.77;3.62;;;;;;;14.35;46.36;99673.00;4501951;31;20095;-82
2022/10/20 06:56:00;;;;;;;8.77;3.20;;;;;;;14.40;46.15;99671.88;4487536;31;20104;-82
2022/10/20 06:58:26;;;;;;;11.12;3.28;;;;;;;14.40;45.85;99672.72;4487547;31;20118;-82
2022/10/20 07:01:05;;;;;;;11.07;3.80;;;;;;;14.47;45.85;99675.91;4487242;31;20085;-82
2022/10/20 07:03:32;;;;;;;10.43;3.60;;;;;;;14.39;45.62;99680.75;4501771;31;20071;-82
2022/10/20 07:05:57;;;;;;;12.35;3.85;;;;;;;14.12;45.80;99678.72;4486856;31;20080;-82
2022/10/20 07:08:23;;;;;;;11.12;3.37;;;;;;;14.45;45.28;99680.44;4488075;31;20119;-83
2022/10/20 07:11:06;;;;;;;10.25;4.03;;;;;;;14.33;45.40;99688.13;4488055;31;20096;-81
2022/10/20 07:13:34;;;;;;;9.52;3.28;;;;;;;14.52;45.28;99687.09;4477945;31;20108;-81
2022/10/20 07:16:00;;;;;;;11.25;3.70;;;;;;;14.61;44.93;99693.72;4487306;31;20112;-82
2022/10/20 07:18:26;;;;;;;9.98;3.15;;;;;;;14.41;45.45;99689.47;4501471;31;20112;-82
2022/10/20 07:20:56;;;;;;;11.27;3.08;;;;;;;14.43;45.60;99696.44;4487761;31;20416;-81
2022/10/20 07:23:22;;;;;;;10.88;3.72;;;;;;;14.60;44.94;99700.78;4502582;31;20419;-81
2022/10/20 07:25:48;;;;;;;12.55;3.70;;;;;;;14.11;46.05;99703.50;4488690;31;20127;-81
2022/10/20 07:28:13;;;;;;;8.98;3.60;;;;;;;14.22;45.65;99698.47;4503749;31;20087;-81
2022/10/20 07:30:39;;;;;;;10.02;3.90;;;;;;;14.41;45.00;99705.38;4503450;31;20080;-82
2022/10/20 07:33:05;;;;;;;11.50;3.92;;;;;;;14.44;45.23;99708.72;4503726;31;20144;-82
2022/10/20 07:35:31;;;;;;;10.27;3.62;;;;;;;14.60;44.73;99699.94;4489337;31;20112;-82
2022/10/20 07:37:56;;;;;;;9.98;3.90;;;;;;;14.63;44.76;99702.44;4503578;31;20084;-82
2022/10/20 07:40:22;;;;;;;9.50;3.47;;;;;;;14.16;46.33;99696.16;4489233;31;20181;-81
2022/10/20 07:42:47;;;;;;;11.93;3.78;;;;;;;14.60;44.43;99695.50;4503481;31;20379;-81
2022/10/20 07:45:12;;;;;;;11.10;3.90;;;;;;;14.55;44.92;99701.03;4503269;31;20111;-81
2022/10/20 07:47:38;;;;;;;11.73;4.12;;;;;;;14.01;46.49;99710.25;4489226;31;20126;-82
2022/10/20 07:50:03;;;;;;;10.70;3.75;;;;;;;14.23;46.06;99705.47;4503530;31;20463;-81
2022/10/20 07:52:30;;;;;;;14.27;3.97;;;;;;;14.42;45.47;99704.47;4503389;31;20095;-82
2022/10/20 07:54:56;;;;;;;14.20;3.92;;;;;;;14.79;44.40;99713.00;4489173;31;20100;-81
2022/10/20 07:57:21;;;;;;;11.60;3.92;;;;;;;15.01;43.80;99712.63;4503476;31;20140;-82
2022/10/20 07:59:46;;;;;;;9.43;3.75;;;;;;;15.10;43.69;99704.13;4489188;31;20080;-82
2022/10/20 08:02:14;;;;;;;9.90;3.50;;;;;;;15.09;43.22;99708.59;4503434;31;20134;-81
2022/10/20 08:04:42;;;;;;;10.20;3.55;;;;;;;14.83;44.16;99710.09;4489440;31;20099;-81
2022/10/20 08:07:08;;;;;;;10.23;3.50;;;;;;;14.75;44.40;99713.19;4503235;31;20131;-82
2022/10/20 08:09:34;;;;;;;8.48;3.50;;;;;;;14.48;44.83;99712.06;4503324;31;20090;-82
2022/10/20 08:11:59;;;;;;;11.75;3.50;;;;;;;14.47;45.17;99713.03;4503338;31;20449;-81
2022/10/20 08:14:30;;;;;;;10.73;3.85;;;;;;;14.54;44.93;99712.59;4503188;31;20092;-82
2022/10/20 08:16:56;;;;;;;9.77;3.60;;;;;;;14.75;44.80;99707.88;4503440;31;20804;-81
2022/10/20 08:19:21;;;;;;;11.27;3.72;;;;;;;14.86;44.45;99703.78;4503158;31;20139;-81
2022/10/20 08:21:47;;;;;;;8.73;3.70;;;;;;;14.91;44.15;99710.53;4488785;31;20092;-81
2022/10/20 08:24:12;;;;;;;8.48;3.47;;;;;;;14.95;43.71;99713.88;4503336;31;20095;-81
2022/10/20 08:26:38;;;;;;;8.52;3.30;;;;;;;14.97;44.07;99717.28;4503208;31;20120;-82
2022/10/20 08:29:03;;;;;;;12.57;3.65;;;;;;;14.88;44.18;99728.41;4488816;31;20146;-82
2022/10/20 08:31:29;;;;;;;8.25;3.45;;;;;;;14.93;44.05;99718.37;4503154;31;20106;-82
2022/10/20 08:33:55;;;;;;;9.55;3.40;;;;;;;15.01;43.93;99724.13;4503067;31;20088;-82
2022/10/20 08:36:21;;;;;;;10.65;3.87;;;;;;;14.98;43.99;99721.63;4503172;31;20117;-82
2022/10/20 08:38:47;;;;;;;10.75;3.87;;;;;;;14.98;43.79;99718.97;4488862;31;20103;-82
2022/10/20 08:41:32;;;;;;;10.70;4.15;;;;;;;14.95;43.41;99724.47;4488840;31;20080;-81
2022/10/20 08:43:58;;;;;;;12.95;3.70;;;;;;;14.94;43.77;99726.25;4489036;31;20731;-82
2022/10/20 08:46:29;;;;;;;12.57;4.18;;;;;;;14.99;43.74;99723.34;4488691;31;20100;-81
2022/10/20 08:48:54;;;;;;;9.82;4.28;;;;;;;14.90;44.14;99723.88;4488853;31;20085;-82
2022/10/20 08:51:22;;;;;;;10.93;4.45;;;;;;;14.65;44.51;99727.91;4503006;31;20088;-82
2022/10/20 08:53:48;;;;;;;10.90;4.62;;;;;;;14.68;44.60;99733.06;4488716;31;20163;-82
2022/10/20 08:56:14;;;;;;;11.52;4.15;;;;;;;14.94;44.10;99720.09;4488657;31;20471;-82
2022/10/20 08:58:43;;;;;;;12.37;4.68;;;;;;;14.95;44.17;99721.81;4488513;31;20118;-82
2022/10/20 09:01:24;;;;;;;12.07;4.80;;;;;;;14.68;44.75;99734.84;4488589;31;20153;-82
2022/10/20 09:04:10;;;;;;;12.98;5.10;;;;;;;14.83;44.97;99725.16;4488987;31;20108;-82
2022/10/20 09:06:36;;;;;;;15.00;4.95;;;;;;;14.83;44.73;99736.63;4485735;32;20647;-82
2022/10/20 09:09:02;;;;;;;11.00;4.35;;;;;;;14.78;44.96;99737.84;4486077;32;20365;-82
2022/10/20 09:11:33;;;;;;;10.43;4.43;;;;;;;15.00;44.42;99729.50;4485796;32;20103;-82
2022/10/20 09:13:58;;;;;;;11.48;4.78;;;;;;;14.54;45.82;99739.09;4486269;32;20104;-82
2022/10/20 09:16:29;;;;;;;13.38;4.68;;;;;;;14.67;45.46;99739.28;4486270;32;20440;-82
2022/10/20 09:18:58;;;;;;;12.48;4.18;;;;;;;14.50;46.25;99739.34;4486279;32;20083;-82
2022/10/20 09:21:24;;;;;;;13.52;4.80;;;;;;;14.67;45.71;99733.97;4486217;32;20463;-82
2022/10/20 09:23:55;;;;;;;11.05;4.85;;;;;;;14.62;46.17;99737.84;4472973;32;20127;-82
2022/10/20 09:26:42;;;;;;;10.43;3.90;;;;;;;14.91;45.19;99737.06;4486199;32;20516;-82
2022/10/20 09:29:35;;;;;;;14.20;4.15;;;;;;;14.83;44.90;99726.00;4486491;32;20167;-82
2022/10/20 09:32:01;;;;;;;10.50;4.00;;;;;;;15.05;44.68;99732.75;4485042;32;20103;-82
2022/10/20 09:34:27;;;;;;;12.48;3.50;;;;;;;15.14;44.38;99742.81;4487085;31;20088;-82
2022/10/20 09:37:08;;;;;;;12.27;4.18;;;;;;;15.02;44.67;99740.88;4486902;31;20080;-82
2022/10/20 09:39:45;;;;;;;11.25;4.00;;;;;;;15.05;44.62;99738.06;4487002;31;20136;-82
2022/10/20 09:42:14;;;;;;;12.50;4.53;;;;;;;15.13;44.44;99738.47;4486942;31;20089;-82
2022/10/20 09:45:01;;;;;;;10.55;3.55;;;;;;;15.17;44.12;99732.03;4485669;32;20535;-82
2022/10/20 09:47:26;;;;;;;10.55;4.07;;;;;;;15.28;44.09;99734.91;4486947;31;20092;-82
2022/10/20 09:50:03;;;;;;;10.95;4.37;;;;;;;15.12;44.18;99732.31;4486828;31;20480;-82
2022/10/20 09:52:39;;;;;;;11.27;3.87;;;;;;;15.28;43.95;99734.91;4472508;32;20093;-82
2022/10/20 09:55:23;;;;;;;13.07;3.72;;;;;;;15.29;43.98;99735.75;4485717;32;20119;-82
2022/10/20 09:57:49;;;;;;;12.32;4.10;;;;;;;15.30;44.19;99732.19;4485682;32;20114;-82
2022/10/20 10:00:23;;;;;;;10.57;3.80;;;;;;;15.43;43.61;99733.16;4485441;32;20060;-82
2022/10/20 10:03:20;;;;;;;13.00;4.00;;;;;;;15.23;44.14;99733.47;4485508;32;20461;-82
2022/10/20 10:05:56;;;;;;;10.70;3.78;;;;;;;15.36;44.12;99736.28;4489611;31;20181;-82
2022/10/20 10:08:25;;;;;;;9.88;3.65;;;;;;;15.50;43.78;99738.94;4488372;31;20159;-82
2022/10/20 10:10:58;;;;;;;11.98;4.10;;;;;;;15.57;43.21;99726.16;4488267;31;20100;-82
2022/10/20 10:13:25;;;;;;;12.37;3.60;;;;;;;15.60;43.09;99732.13;4502565;31;20431;-82
2022/10/20 10:16:03;;;;;;;10.60;3.55;;;;;;;15.64;43.08;99727.50;4487937;31;20134;-82
2022/10/20 10:18:29;;;;;;;13.52;4.10;;;;;;;15.65;43.50;99731.88;4487888;31;20108;-82
2022/10/20 10:21:02;;;;;;;10.57;4.00;;;;;;;15.71;42.97;99720.88;4487750;31;20080;-82
2022/10/20 10:23:30;;;;;;;10.32;3.60;;;;;;;15.56;43.72;99719.97;4488119;31;20584;-82
2022/10/20 10:25:56;;;;;;;9.07;3.70;;;;;;;15.78;42.97;99719.59;4501969;31;20092;-82
2022/10/20 10:28:35;;;;;;;11.88;4.15;;;;;;;15.24;44.12;99721.91;4502171;31;20122;-82
2022/10/20 10:31:19;;;;;;;10.35;3.90;;;;;;;15.56;43.29;99709.38;4487696;31;20104;-82
2022/10/20 10:33:45;;;;;;;11.02;3.78;;;;;;;15.68;42.75;99705.09;4487762;31;20429;-82
2022/10/20 10:36:20;;;;;;;10.13;3.75;;;;;;;15.45;43.50;99714.47;4487586;31;20104;-82
2022/10/20 10:38:46;;;;;;;10.65;3.60;;;;;;;15.35;43.91;99706.19;4487642;31;20161;-82
2022/10/20 10:41:45;;;;;;;10.98;3.78;;;;;;;15.63;43.04;99696.59;4501806;31;20092;-82
2022/10/20 10:44:18;;;;;;;11.10;3.78;;;;;;;15.76;42.98;99700.22;4504177;31;20076;-82
2022/10/20 10:46:53;;;;;;;10.07;3.70;;;;;;;15.69;43.26;99690.88;4504334;31;20103;-82
2022/10/20 10:50:03;;;;;;;10.10;3.50;;;;;;;15.30;44.95;99695.00;4503925;31;20100;-82
2022/10/20 10:52:34;;;;;;;12.30;4.00;;;;;;;15.81;43.49;99691.97;4439484;32;20190;-82
2022/10/20 10:54:59;;;;;;;12.02;3.78;;;;;;;15.84;43.21;99683.78;4426340;32;20112;-82
2022/10/20 10:57:44;;;;;;;12.27;4.37;;;;;;;15.96;42.96;99680.37;4426017;32;20141;-82
2022/10/20 11:00:16;;;;;;;10.15;3.90;;;;;;;16.05;42.49;99684.25;4439198;32;20132;-82
2022/10/20 11:03:05;;;;;;;9.95;3.62;;;;;;;16.15;42.29;99664.13;4426480;32;20139;-81
2022/10/20 11:05:49;;;;;;;11.05;4.05;;;;;;;16.12;42.21;99672.28;4430664;32;20323;-82
2022/10/20 11:08:18;;;;;;;11.35;3.97;;;;;;;16.08;42.71;99660.16;4439189;32;20144;-82
2022/10/20 11:10:49;;;;;;;10.40;3.83;;;;;;;16.12;42.20;99654.53;4426139;32;20108;-82
2022/10/20 11:13:20;;;;;;;10.13;3.58;;;;;;;15.92;42.48;99652.31;4426121;32;20097;-82
2022/10/20 11:15:49;;;;;;;7.72;3.00;;;;;;;15.94;42.71;99652.22;4438950;32;20094;-82
2022/10/20 11:18:29;;;;;;;10.52;3.50;;;;;;;16.05;42.59;99647.03;4438941;32;20170;-82
2022/10/20 11:21:13;;;;;;;9.23;3.75;;;;;;;16.21;42.29;99647.78;4438979;32;20487;-82
2022/10/20 11:24:10;;;;;;;10.35;3.12;;;;;;;16.28;41.60;99641.13;4482466;31;20152;-82
2022/10/20 11:26:38;;;;;;;9.48;3.22;;;;;;;16.38;41.67;99641.38;4503965;31;20128;-82
2022/10/20 11:29:08;;;;;;;9.05;2.87;;;;;;;16.28;41.75;99645.56;4489520;31;20757;-82
2022/10/20 11:31:43;;;;;;;10.20;2.90;;;;;;;16.44;40.93;99630.34;4489458;31;20107;-82
2022/10/20 11:34:32;;;;;;;7.68;2.80;;;;;;;16.44;40.92;99629.50;4503710;31;20088;-82
2022/10/20 11:37:16;;;;;;;;;;;;;;;16.07;41.46;99631.84;4489794;31;20128;-83
2022/10/20 11:39:51;;;;;;;8.50;2.87;;;;;;;16.53;40.17;99618.22;4503967;31;19976;-82
2022/10/20 11:42:43;;;;;;;8.43;2.22;;;;;;;16.65;40.40;99617.44;4489249;31;20399;-82